Time;durP1;ratioP1;P1;durP2;ratioP2;P2;SDS_P1;SDS_P2;PMS_P1;PMS_P2;Temp;Humidity;BMP_temperature;BMP_pressure;BME280_temperature;BME280_humidity;BME280_pressure;Samples;Min_cycle;Max_cycle;Signal;HPM_P1;HPM_P2
2021/12/05 00:19:46;;;;;;;40.60;25.77;;;;;;;9.28;71.35;93979.84;4931713;29;20296;-76
2021/12/05 00:22:22;;;;;;;40.17;24.03;;;;;;;9.25;71.52;93982.69;4943699;28;20252;-75
2021/12/05 00:24:52;;;;;;;36.60;24.47;;;;;;;9.19;71.52;93980.72;4975419;28;20316;-75
2021/12/05 00:27:24;;;;;;;43.13;25.73;;;;;;;8.89;71.53;93932.63;4974452;28;20194;-75
2021/12/05 00:30:00;;;;;;;41.93;25.53;;;;;;;9.18;71.73;93975.75;4992205;28;20269;-76
2021/12/05 00:32:35;;;;;;;44.10;26.43;;;;;;;9.15;71.58;93973.50;5049880;28;20218;-74
2021/12/05 00:46:30;;;;;;;40.07;24.90;;;;;;;9.00;71.80;93984.22;5008516;28;20204;-76
2021/12/05 00:57:47;;;;;;;42.53;24.63;;;;;;;8.70;71.87;93941.22;5027723;28;20203;-75
2021/12/05 01:03:30;;;;;;;42.17;24.30;;;;;;;8.84;71.90;93958.56;5027563;28;20207;-75
2021/12/05 01:06:39;;;;;;;35.07;23.47;;;;;;;8.80;71.92;93954.69;5027592;28;20379;-76
2021/12/05 01:09:28;;;;;;;37.23;22.63;;;;;;;8.77;71.97;93962.66;5027573;28;20191;-74
2021/12/05 01:14:58;;;;;;;40.37;24.20;;;;;;;8.66;71.83;93950.91;4988595;28;20227;-75
2021/12/05 01:17:30;;;;;;;39.47;23.63;;;;;;;8.68;72.17;93954.13;4987948;28;20219;-76
2021/12/05 01:19:58;;;;;;;36.03;23.20;;;;;;;8.66;72.10;93950.91;4988301;28;20205;-78
2021/12/05 01:22:27;;;;;;;38.90;23.27;;;;;;;8.64;71.97;93946.91;4990454;28;20228;-75
2021/12/05 01:25:02;;;;;;;41.77;22.43;;;;;;;8.63;71.95;93953.75;5008030;28;20188;-75
2021/12/05 01:27:39;;;;;;;37.23;22.47;;;;;;;8.61;72.04;93947.19;5007767;28;20274;-76
2021/12/05 01:30:13;;;;;;;38.07;21.53;;;;;;;8.58;72.06;93935.53;5007828;28;20192;-77
2021/12/05 01:32:52;;;;;;;35.57;22.00;;;;;;;8.57;72.09;93928.03;5007542;28;20357;-76
2021/12/05 01:35:30;;;;;;;36.20;21.93;;;;;;;8.31;72.21;93887.94;5007603;28;20188;-75
2021/12/05 01:38:05;;;;;;;32.83;20.37;;;;;;;8.35;72.17;93883.38;5007732;28;20270;-77
2021/12/05 01:41:03;;;;;;;32.17;21.10;;;;;;;8.50;72.12;93918.41;5007819;28;20197;-76
2021/12/05 01:49:41;;;;;;;33.07;19.97;;;;;;;8.40;72.14;93901.59;4949170;29;20748;-75
2021/12/05 01:52:32;;;;;;;34.17;20.80;;;;;;;8.43;72.30;93914.84;4987937;28;20315;-75
2021/12/05 01:57:55;;;;;;;32.60;19.93;;;;;;;8.42;72.26;93931.09;5007543;28;20655;-75
2021/12/05 02:09:11;;;;;;;33.20;21.03;;;;;;;8.40;72.86;93935.50;4930439;29;20291;-74
2021/12/05 02:11:54;;;;;;;31.83;20.27;;;;;;;8.38;72.56;93939.97;4930148;29;20199;-75
2021/12/05 02:34:04;;;;;;;36.07;18.50;;;;;;;8.61;73.08;93954.84;5010634;28;20296;-74
2021/12/05 02:36:55;;;;;;;33.40;19.97;;;;;;;8.63;72.89;93942.75;5016276;28;20188;-76
2021/12/05 02:39:36;;;;;;;32.60;20.03;;;;;;;8.67;72.97;93941.50;5072834;28;20580;-74
2021/12/05 02:42:10;;;;;;;28.87;18.67;;;;;;;8.70;72.94;93941.22;5072862;28;20630;-74
2021/12/05 02:44:41;;;;;;;28.17;18.03;;;;;;;8.73;72.86;93930.75;5072479;28;20281;-77
2021/12/05 02:47:12;;;;;;;32.60;18.97;;;;;;;8.74;72.91;93929.81;5072500;28;20218;-75
2021/12/05 02:49:41;;;;;;;33.17;20.00;;;;;;;8.76;72.91;93935.53;5072341;28;20199;-74
2021/12/05 02:52:11;;;;;;;32.33;18.97;;;;;;;8.75;73.08;93934.75;5072528;28;20604;-74
2021/12/05 02:54:45;;;;;;;31.43;20.07;;;;;;;8.76;72.92;93925.34;5072504;28;20190;-75
2021/12/05 02:57:12;;;;;;;26.93;17.27;;;;;;;8.81;72.99;93925.75;5072545;28;20393;-75
2021/12/05 02:59:47;;;;;;;30.03;19.33;;;;;;;8.81;72.79;93920.63;5072072;28;20244;-75
2021/12/05 03:02:18;;;;;;;30.27;18.30;;;;;;;8.80;72.81;93919.00;5072425;28;20197;-76
2021/12/05 03:04:47;;;;;;;29.67;18.93;;;;;;;8.88;72.88;93926.72;5072073;28;20753;-76
2021/12/05 03:07:17;;;;;;;30.93;19.50;;;;;;;8.90;72.79;93929.16;5072530;28;20237;-76
2021/12/05 03:09:45;;;;;;;28.60;18.23;;;;;;;8.91;72.88;93923.09;5072257;28;20194;-75
2021/12/05 03:12:17;;;;;;;30.53;17.20;;;;;;;8.95;72.84;93929.50;5072096;28;20222;-76
2021/12/05 03:14:45;;;;;;;29.90;18.20;;;;;;;8.97;72.87;93932.72;5071945;28;20182;-76
2021/12/05 03:17:12;;;;;;;29.47;17.97;;;;;;;8.98;72.78;93926.66;5072227;28;20194;-76
2021/12/05 03:19:39;;;;;;;31.30;19.70;;;;;;;9.02;72.60;93925.41;5071832;28;20190;-77
2021/12/05 03:22:06;;;;;;;30.00;18.97;;;;;;;9.04;72.83;93916.69;5072155;28;20190;-76
2021/12/05 03:24:34;;;;;;;26.87;18.37;;;;;;;9.07;72.59;93919.88;5071767;28;20249;-77
2021/12/05 03:27:05;;;;;;;28.83;19.37;;;;;;;9.09;72.68;93923.09;5071831;28;20636;-75
2021/12/05 03:29:32;;;;;;;30.03;20.17;;;;;;;9.11;72.75;93919.44;5072315;28;20577;-74
2021/12/05 03:31:59;;;;;;;28.97;19.63;;;;;;;9.13;72.70;93922.66;5072113;28;20194;-74
2021/12/05 03:34:27;;;;;;;29.90;19.33;;;;;;;9.16;72.74;93913.91;5071547;28;20194;-75
2021/12/05 03:36:56;;;;;;;28.93;18.70;;;;;;;9.15;72.53;93915.63;5071511;28;20194;-75
2021/12/05 03:39:23;;;;;;;31.80;18.23;;;;;;;9.20;72.73;93915.22;5071341;28;20228;-75
2021/12/05 03:41:53;;;;;;;29.43;19.10;;;;;;;9.00;72.69;93882.22;5072210;28;20190;-77
2021/12/05 03:44:25;;;;;;;24.50;17.40;;;;;;;9.24;72.71;93907.13;5072134;28;20239;-72
2021/12/05 03:46:53;;;;;;;25.13;17.20;;;;;;;9.26;72.62;93912.84;5072104;28;20198;-75
2021/12/05 03:49:21;;;;;;;25.33;16.10;;;;;;;9.29;72.61;93911.78;5071538;28;20213;-76
2021/12/05 03:51:52;;;;;;;25.27;16.53;;;;;;;9.32;72.62;93910.66;5071904;28;20192;-76
2021/12/05 03:54:20;;;;;;;26.93;16.50;;;;;;;9.30;72.66;93903.16;5071424;28;20183;-76
2021/12/05 03:56:47;;;;;;;24.03;16.93;;;;;;;9.36;72.57;93919.59;5071246;28;20190;-76
2021/12/05 03:59:15;;;;;;;27.20;17.03;;;;;;;9.38;72.39;93908.31;5071400;28;20684;-76
2021/12/05 04:01:43;;;;;;;25.03;15.93;;;;;;;9.41;72.59;93918.22;5070958;28;20198;-74
2021/12/05 04:04:12;;;;;;;23.80;17.27;;;;;;;9.43;72.57;93916.31;5071279;28;20201;-73
2021/12/05 04:06:39;;;;;;;25.10;17.10;;;;;;;9.45;72.83;93919.50;5071293;28;20320;-74
2021/12/05 04:09:11;;;;;;;29.20;18.87;;;;;;;9.48;72.51;93915.88;5071414;28;20194;-74
2021/12/05 04:11:43;;;;;;;25.93;16.83;;;;;;;9.49;72.43;93917.47;5071088;28;20187;-76
2021/12/05 04:14:13;;;;;;;26.73;16.73;;;;;;;9.51;72.53;93921.47;5070946;28;20787;-74
2021/12/05 04:16:43;;;;;;;25.43;15.83;;;;;;;9.53;72.53;93921.31;5073650;28;20270;-74
2021/12/05 04:19:10;;;;;;;23.80;16.57;;;;;;;9.53;72.45;93906.78;5074851;28;20193;-75
2021/12/05 04:21:39;;;;;;;23.70;16.63;;;;;;;9.54;72.50;93918.63;5072461;28;20537;-75
2021/12/05 04:24:09;;;;;;;24.63;17.83;;;;;;;9.53;72.53;93917.00;5070855;28;20279;-75
2021/12/05 04:26:37;;;;;;;26.43;17.07;;;;;;;9.54;72.63;93928.00;5070507;28;20194;-76
2021/12/05 04:29:05;;;;;;;22.10;16.03;;;;;;;9.55;72.41;93924.53;5069616;28;20198;-75
2021/12/05 04:31:32;;;;;;;25.40;16.67;;;;;;;9.49;72.53;93928.47;5070656;28;20209;-75
2021/12/05 04:34:01;;;;;;;25.90;15.83;;;;;;;9.54;72.49;93931.41;5070533;28;20727;-75
2021/12/05 04:36:28;;;;;;;26.80;16.47;;;;;;;9.53;72.46;93929.78;5069855;28;20178;-74
2021/12/05 04:38:54;;;;;;;28.17;17.47;;;;;;;9.54;72.43;93923.75;5070962;28;20187;-74
2021/12/05 04:41:23;;;;;;;23.63;16.40;;;;;;;9.54;72.56;93928.84;5070378;28;20194;-74
2021/12/05 04:43:51;;;;;;;28.00;17.07;;;;;;;9.53;72.37;93932.31;5070884;28;20190;-75
2021/12/05 04:46:20;;;;;;;25.00;16.80;;;;;;;9.57;72.36;93929.47;5069539;28;20557;-75
2021/12/05 04:48:51;;;;;;;23.87;16.53;;;;;;;9.58;72.35;93947.19;5070309;28;20190;-75
2021/12/05 04:51:21;;;;;;;26.03;16.70;;;;;;;9.58;72.35;93944.63;5070086;28;20182;-76
2021/12/05 04:53:48;;;;;;;26.97;17.13;;;;;;;9.60;72.28;93941.94;5070524;28;20222;-74
2021/12/05 04:56:16;;;;;;;24.67;16.73;;;;;;;9.61;72.28;93941.00;5070166;28;20201;-75
2021/12/05 04:58:43;;;;;;;25.27;16.77;;;;;;;9.62;72.16;93952.78;5070390;28;20267;-75
2021/12/05 05:01:10;;;;;;;26.97;16.87;;;;;;;9.62;72.10;93947.69;5070264;28;20571;-76
2021/12/05 05:03:38;;;;;;;28.60;17.73;;;;;;;9.15;72.12;93885.03;5069802;28;20278;-74
2021/12/05 05:06:10;;;;;;;28.53;18.37;;;;;;;9.65;72.18;93963.50;5070591;28;20201;-76
2021/12/05 05:08:38;;;;;;;25.50;17.60;;;;;;;9.65;72.14;93962.72;5069956;28;20677;-75
2021/12/05 05:11:08;;;;;;;23.13;16.10;;;;;;;9.65;72.66;93966.06;5070355;28;20221;-74
2021/12/05 05:13:35;;;;;;;24.77;16.70;;;;;;;9.65;72.65;93960.16;5070127;28;20230;-73
2021/12/05 05:16:04;;;;;;;23.17;16.60;;;;;;;9.66;72.79;93959.22;5070263;28;20190;-74
2021/12/05 05:18:39;;;;;;;21.90;15.57;;;;;;;9.67;72.60;93976.13;5069651;28;20190;-75
2021/12/05 05:21:12;;;;;;;23.80;16.47;;;;;;;9.66;72.76;93964.31;5070091;28;20185;-76
2021/12/05 05:23:55;;;;;;;24.10;14.67;;;;;;;9.64;72.60;93961.13;5069525;28;20222;-73
2021/12/05 05:29:30;;;;;;;28.40;16.57;;;;;;;9.57;72.85;93968.56;5070080;28;20193;-76
2021/12/05 05:40:34;;;;;;;25.63;16.33;;;;;;;9.54;73.14;93964.56;5027290;28;20198;-74
2021/12/05 05:43:18;;;;;;;25.20;15.47;;;;;;;9.54;73.13;93966.28;5027751;28;20200;-74
2021/12/05 05:51:09;;;;;;;24.13;16.20;;;;;;;9.51;73.37;93969.97;5025515;28;20199;-74
2021/12/05 05:53:37;;;;;;;24.47;16.40;;;;;;;9.53;73.52;93952.75;5026972;28;20223;-75
2021/12/05 05:56:10;;;;;;;28.03;16.80;;;;;;;9.54;73.34;93946.72;5027621;28;20199;-76
2021/12/05 05:58:42;;;;;;;22.70;16.30;;;;;;;9.57;73.32;93948.16;5030928;28;20184;-74
2021/12/05 06:01:18;;;;;;;22.50;16.30;;;;;;;9.44;73.50;93930.66;5031428;28;20192;-74
2021/12/05 06:03:45;;;;;;;25.93;16.13;;;;;;;9.59;73.46;93955.66;5031171;28;20226;-74
2021/12/05 06:06:14;;;;;;;22.80;16.20;;;;;;;9.58;73.39;93962.50;5031175;28;20782;-75
2021/12/05 06:08:41;;;;;;;25.87;16.73;;;;;;;9.64;73.09;93971.34;5030920;28;20188;-74
2021/12/05 06:11:12;;;;;;;24.30;15.67;;;;;;;9.66;73.25;93972.75;5031244;28;20738;-73
2021/12/05 06:13:40;;;;;;;23.90;15.07;;;;;;;9.57;73.03;93955.00;5056805;28;20229;-75
2021/12/05 06:16:08;;;;;;;24.80;17.33;;;;;;;9.76;72.81;93981.16;5073548;28;20263;-74
2021/12/05 06:18:35;;;;;;;28.23;16.63;;;;;;;9.83;72.67;93973.66;5073252;28;20185;-74
2021/12/05 06:21:03;;;;;;;27.23;17.93;;;;;;;9.89;72.68;93978.19;5073532;28;20199;-73
2021/12/05 06:23:30;;;;;;;28.20;18.23;;;;;;;10.04;72.63;93984.31;5072955;28;20602;-73
2021/12/05 06:25:58;;;;;;;26.03;17.53;;;;;;;10.13;72.17;93979.25;5073722;28;20537;-75
2021/12/05 06:28:32;;;;;;;24.27;17.00;;;;;;;10.28;72.12;93988.00;5072747;28;20190;-74
2021/12/05 06:31:08;;;;;;;25.53;16.27;;;;;;;10.51;71.67;94001.03;5073322;28;20243;-74
2021/12/05 06:42:09;;;;;;;20.87;15.50;;;;;;;11.84;70.27;94020.59;5073236;28;20273;-75
2021/12/05 06:47:25;;;;;;;24.17;15.73;;;;;;;12.50;69.64;94028.94;5072646;28;20246;-75
2021/12/05 06:49:53;;;;;;;24.93;16.80;;;;;;;12.72;69.03;94032.53;5073225;28;20198;-73
2021/12/05 06:52:20;;;;;;;23.27;16.70;;;;;;;12.80;68.40;94029.94;5072332;28;20183;-73
2021/12/05 06:54:47;;;;;;;25.57;16.33;;;;;;;12.89;68.08;94038.38;5072628;28;20229;-74
2021/12/05 06:57:13;;;;;;;22.27;16.67;;;;;;;12.89;67.56;94049.44;5072451;28;20198;-77
2021/12/05 06:59:45;;;;;;;24.60;17.80;;;;;;;12.83;67.06;94044.19;5072796;28;20190;-76
2021/12/05 07:02:14;;;;;;;27.97;18.97;;;;;;;12.80;66.61;94045.31;5072439;28;20199;-74
2021/12/05 07:04:52;;;;;;;25.93;18.77;;;;;;;12.75;66.30;94052.72;5072831;28;20183;-72
2021/12/05 07:07:22;;;;;;;27.73;19.90;;;;;;;12.68;66.19;94052.56;5071584;28;20300;-74
2021/12/05 07:09:49;;;;;;;28.77;21.03;;;;;;;12.61;66.00;94051.66;5069266;28;20225;-73
2021/12/05 07:12:50;;;;;;;28.20;22.03;;;;;;;12.54;65.83;94053.28;5069655;28;20653;-74
2021/12/05 07:15:28;;;;;;;29.80;22.17;;;;;;;12.39;65.87;94037.78;5070079;28;20614;-73
2021/12/05 07:20:51;;;;;;;32.53;22.10;;;;;;;12.36;65.64;94050.13;5069404;28;20189;-76
2021/12/05 07:23:31;;;;;;;30.40;21.17;;;;;;;12.30;65.70;94044.69;5069637;28;20222;-75
2021/12/05 07:26:09;;;;;;;21.23;14.57;;;;;;;12.71;96.20;94046.31;5069544;28;20648;-73
2021/12/05 07:42:28;;;;;;;30.67;22.27;;;;;;;12.39;72.13;94027.53;5026748;28;20226;-74
2021/12/05 07:44:58;;;;;;;31.90;22.63;;;;;;;12.27;71.04;94016.81;5027139;28;20862;-75
2021/12/05 07:47:31;;;;;;;32.63;23.33;;;;;;;12.15;69.84;94013.00;5026387;28;20199;-73
2021/12/05 07:50:00;;;;;;;35.10;23.87;;;;;;;12.03;69.37;94016.88;5027290;28;20254;-77
2021/12/05 07:52:29;;;;;;;30.60;21.93;;;;;;;11.86;68.76;94022.97;5026705;28;20188;-83
2021/12/05 07:55:03;;;;;;;28.97;20.17;;;;;;;11.83;68.82;94024.13;5028036;28;20219;-75
2021/12/05 07:57:38;;;;;;;26.00;19.33;;;;;;;11.79;68.51;94025.38;5026806;28;20196;-79
2021/12/05 08:00:14;;;;;;;26.40;17.00;;;;;;;11.73;68.40;94036.25;5026745;28;20217;-77
2021/12/05 08:16:27;;;;;;;20.73;13.73;;;;;;;11.61;68.35;94046.00;5071518;28;20238;-75
2021/12/05 08:18:56;;;;;;;20.00;14.73;;;;;;;11.63;68.13;94038.19;5068233;28;20273;-74
2021/12/05 08:21:24;;;;;;;18.80;14.57;;;;;;;11.64;67.84;94037.22;5068965;28;20190;-75
2021/12/05 08:23:52;;;;;;;19.20;13.87;;;;;;;11.80;67.94;94043.13;5068131;28;20230;-73
2021/12/05 08:26:22;;;;;;;19.47;13.77;;;;;;;11.79;68.03;94033.84;5069031;28;20192;-76
2021/12/05 08:29:04;;;;;;;18.83;13.77;;;;;;;11.94;68.23;94041.69;5068600;28;20565;-75
2021/12/05 08:31:39;;;;;;;17.40;12.23;;;;;;;12.09;67.86;94044.41;5068197;28;20190;-77
2021/12/05 08:34:25;;;;;;;17.87;13.07;;;;;;;12.20;67.50;94045.84;5077360;28;20225;-75
2021/12/05 08:40:09;;;;;;;18.13;12.77;;;;;;;12.41;67.24;94035.84;5085528;28;20327;-75
2021/12/05 09:21:34;;;;;;;18.13;12.70;;;;;;;14.32;61.88;93990.56;5005457;28;20179;-73
2021/12/05 09:24:20;;;;;;;16.73;12.23;;;;;;;14.38;61.53;93971.88;5005679;28;20236;-76
2021/12/05 10:03:00;;;;;;;16.20;10.40;;;;;;;15.16;58.46;93921.47;5006616;28;20204;-77
2021/12/05 10:08:36;;;;;;;14.70;9.70;;;;;;;15.17;57.98;93905.03;5007232;28;20303;-81
2021/12/05 10:11:19;;;;;;;13.37;10.43;;;;;;;15.24;57.71;93916.19;5029755;28;20572;-78
2021/12/05 10:14:00;;;;;;;12.77;9.83;;;;;;;15.25;57.80;93906.69;5082915;28;20210;-76
2021/12/05 10:16:46;;;;;;;18.83;10.30;;;;;;;15.22;57.38;93915.56;5089670;28;20194;-77
2021/12/05 10:36:10;;;;;;;13.10;10.00;;;;;;;15.19;56.59;93895.31;5089429;28;20205;-76
2021/12/05 10:38:44;;;;;;;12.30;10.63;;;;;;;15.20;56.63;93894.34;5087802;28;20208;-76
2021/12/05 10:41:45;;;;;;;15.53;10.10;;;;;;;15.21;56.53;93884.84;5089302;28;20200;-76
2021/12/05 10:44:13;;;;;;;16.70;10.73;;;;;;;15.12;56.55;93870.50;5090488;28;20198;-76
2021/12/05 10:46:46;;;;;;;12.93;10.60;;;;;;;15.14;56.47;93879.63;5092850;28;20195;-75
2021/12/05 10:49:15;;;;;;;15.80;10.37;;;;;;;15.17;56.44;93876.69;5093239;28;20284;-76
2021/12/05 10:51:46;;;;;;;14.80;11.07;;;;;;;15.15;56.24;93865.75;5092745;28;20198;-76
2021/12/05 10:54:15;;;;;;;16.20;11.37;;;;;;;15.17;56.42;93863.03;5093301;28;20224;-75
2021/12/05 10:56:44;;;;;;;16.83;9.90;;;;;;;15.17;56.06;93868.16;5093350;28;20205;-78
2021/12/05 10:59:17;;;;;;;13.47;10.00;;;;;;;15.17;56.42;93861.22;5093038;28;20186;-76
2021/12/05 11:01:48;;;;;;;14.40;11.27;;;;;;;15.11;56.19;93835.41;5093058;28;20196;-77
2021/12/05 11:04:19;;;;;;;15.73;11.43;;;;;;;15.17;56.12;93845.78;5090985;28;20190;-76
2021/12/05 11:06:50;;;;;;;14.63;10.37;;;;;;;15.16;56.18;93836.47;5092626;28;20188;-77
2021/12/05 11:09:21;;;;;;;13.27;9.67;;;;;;;15.05;56.18;93826.66;5093103;28;20628;-77
2021/12/05 11:11:50;;;;;;;11.80;9.03;;;;;;;15.11;56.25;93831.09;5092874;28;20186;-78
2021/12/05 11:14:21;;;;;;;10.77;8.87;;;;;;;15.17;55.99;93834.69;5092696;28;20703;-77
2021/12/05 11:16:56;;;;;;;12.43;9.13;;;;;;;15.18;56.19;93828.56;5091986;28;20190;-78
2021/12/05 11:19:27;;;;;;;13.63;9.50;;;;;;;15.20;56.09;93826.59;5092713;28;20217;-75
2021/12/05 11:21:57;;;;;;;11.33;9.50;;;;;;;15.18;55.88;93816.47;5092762;28;20277;-76
2021/12/05 11:24:28;;;;;;;15.23;9.70;;;;;;;15.18;55.96;93813.09;5092397;28;20436;-77
2021/12/05 11:27:08;;;;;;;12.93;9.60;;;;;;;15.05;55.84;93798.34;5092343;28;20185;-76
2021/12/05 11:29:45;;;;;;;19.20;10.47;;;;;;;15.16;55.82;93807.34;5091645;28;20656;-77
2021/12/05 11:32:17;;;;;;;14.60;9.23;;;;;;;15.17;55.82;93808.94;5092333;28;20185;-77
2021/12/05 11:34:44;;;;;;;12.27;10.17;;;;;;;15.15;55.89;93806.53;5091852;28;20225;-76
2021/12/05 11:37:10;;;;;;;13.60;8.87;;;;;;;15.15;55.83;93801.38;5092560;28;20198;-77
2021/12/05 11:39:37;;;;;;;13.00;9.33;;;;;;;15.16;55.75;93784.97;5091712;28;20661;-76
2021/12/05 11:42:17;;;;;;;12.93;9.73;;;;;;;15.16;55.80;93784.97;5092018;28;20193;-78
2021/12/05 11:44:46;;;;;;;13.53;9.50;;;;;;;15.10;55.70;93772.03;5091677;28;20217;-76
2021/12/05 11:47:18;;;;;;;14.07;9.10;;;;;;;15.16;55.78;93779.03;5092184;28;20204;-77
2021/12/05 11:49:46;;;;;;;14.07;9.37;;;;;;;15.09;55.72;93768.66;5091720;28;20274;-77
2021/12/05 11:52:13;;;;;;;12.70;10.03;;;;;;;15.15;55.74;93767.91;5092053;28;20204;-77
2021/12/05 11:54:42;;;;;;;15.13;9.77;;;;;;;15.14;55.64;93774.03;5090592;28;20600;-75
2021/12/05 11:57:12;;;;;;;15.60;9.63;;;;;;;15.11;55.81;93768.47;5090847;28;20193;-75
2021/12/05 11:59:44;;;;;;;13.23;9.00;;;;;;;15.11;55.72;93765.88;5091662;28;20201;-77
2021/12/05 12:02:14;;;;;;;13.77;9.43;;;;;;;15.15;55.74;93765.31;5092045;28;20189;-80
2021/12/05 12:04:48;;;;;;;14.73;11.10;;;;;;;15.15;55.93;93756.81;5095888;28;20200;-75
2021/12/05 12:07:26;;;;;;;14.13;9.43;;;;;;;15.14;55.81;93760.38;5100283;28;20242;-77
2021/12/05 12:09:57;;;;;;;13.13;9.40;;;;;;;15.17;55.68;93757.44;5092919;28;20228;-74
2021/12/05 12:12:25;;;;;;;12.47;9.43;;;;;;;15.08;55.68;93737.97;5091857;28;20668;-76
2021/12/05 12:14:52;;;;;;;13.40;8.63;;;;;;;15.12;55.67;93736.59;5091027;28;20251;-75
2021/12/05 12:17:19;;;;;;;17.37;8.87;;;;;;;15.20;55.49;93744.19;5091703;28;20247;-76
2021/12/05 12:19:50;;;;;;;11.23;8.80;;;;;;;15.23;55.67;93751.50;5090728;28;20207;-76
2021/12/05 12:22:20;;;;;;;9.30;8.13;;;;;;;15.21;55.71;93756.88;5090430;28;20200;-75
2021/12/05 12:24:50;;;;;;;12.43;9.10;;;;;;;15.19;55.78;93745.16;5091148;28;20294;-77
2021/12/05 12:27:17;;;;;;;11.90;9.53;;;;;;;15.19;55.66;93740.00;5091497;28;20188;-77
2021/12/05 12:29:45;;;;;;;16.17;9.33;;;;;;;15.16;55.73;93737.81;5091362;28;20759;-76
2021/12/05 12:32:26;;;;;;;20.23;9.40;;;;;;;15.15;55.63;93733.63;5091481;28;20205;-75
2021/12/05 12:35:05;;;;;;;11.57;8.90;;;;;;;15.14;55.64;93732.03;5090856;28;20586;-76
2021/12/05 12:37:31;;;;;;;13.07;8.80;;;;;;;15.12;55.65;93742.53;5090743;28;20636;-77
2021/12/05 12:39:58;;;;;;;16.17;8.37;;;;;;;15.05;55.76;93726.25;5090414;28;20189;-76
2021/12/05 12:42:29;;;;;;;14.87;8.77;;;;;;;15.10;55.72;93733.41;5091288;28;20182;-75
2021/12/05 12:45:10;;;;;;;11.30;8.57;;;;;;;15.08;55.46;93732.81;5090541;28;20296;-76
2021/12/05 12:47:40;;;;;;;12.00;8.13;;;;;;;15.06;55.78;93728.63;5090484;28;20217;-78
2021/12/05 12:50:34;;;;;;;10.80;7.87;;;;;;;15.06;55.55;93723.47;5090583;28;20669;-78
2021/12/05 12:53:12;;;;;;;13.23;7.90;;;;;;;14.91;55.55;93704.00;5090538;28;20672;-75
2021/12/05 12:55:43;;;;;;;11.27;8.43;;;;;;;15.05;55.52;93715.94;5090914;28;20213;-75
2021/12/05 12:58:12;;;;;;;9.03;7.30;;;;;;;14.77;55.58;93680.75;5090570;28;20186;-74
2021/12/05 13:00:43;;;;;;;8.80;7.43;;;;;;;15.02;55.49;93719.69;5090933;28;20765;-75
2021/12/05 13:03:29;;;;;;;8.93;7.17;;;;;;;14.95;55.39;93708.56;5090527;28;20625;-77
2021/12/05 13:11:49;;;;;;;9.13;7.50;;;;;;;14.96;55.59;93712.72;5089680;28;20188;-77
2021/12/05 13:14:18;;;;;;;9.50;6.80;;;;;;;14.91;55.51;93704.00;5089919;28;20192;-76
2021/12/05 13:16:46;;;;;;;11.43;7.87;;;;;;;14.94;55.68;93713.88;5090208;28;20198;-77
2021/12/05 13:19:18;;;;;;;11.77;8.47;;;;;;;14.92;55.78;93705.56;5090326;28;20178;-75
2021/12/05 13:21:49;;;;;;;10.80;7.83;;;;;;;14.90;55.82;93716.06;5090143;28;20236;-76
2021/12/05 13:24:23;;;;;;;12.10;8.13;;;;;;;14.82;55.99;93699.97;5090395;28;20585;-75
2021/12/05 13:26:52;;;;;;;15.47;9.70;;;;;;;14.86;56.07;93701.19;5090159;28;20186;-78
2021/12/05 13:29:22;;;;;;;10.70;8.70;;;;;;;14.83;56.25;93692.06;5090554;28;20196;-76
2021/12/05 13:31:54;;;;;;;12.77;8.60;;;;;;;14.80;56.45;93700.94;5090080;28;20200;-77
2021/12/05 13:34:31;;;;;;;10.03;8.33;;;;;;;14.68;56.64;93681.88;5090365;28;20270;-77
2021/12/05 13:37:16;;;;;;;12.57;8.90;;;;;;;14.75;56.64;93698.13;5089155;28;20196;-76
2021/12/05 13:39:46;;;;;;;12.20;8.77;;;;;;;14.73;56.91;93699.31;5089067;28;20189;-75
2021/12/05 13:42:16;;;;;;;10.90;8.70;;;;;;;14.70;57.08;93709.97;5090044;28;20637;-76
2021/12/05 13:45:07;;;;;;;12.67;8.87;;;;;;;14.65;57.33;93712.31;5090487;28;20642;-77
2021/12/05 13:47:39;;;;;;;15.80;8.90;;;;;;;14.60;57.61;93704.38;5090430;28;20289;-78
2021/12/05 13:50:33;;;;;;;11.17;8.40;;;;;;;14.54;57.69;93704.09;5090273;28;20189;-78
2021/12/05 13:53:20;;;;;;;12.03;8.47;;;;;;;14.49;57.88;93700.50;5089715;28;20200;-77
2021/12/05 13:55:50;;;;;;;10.90;7.73;;;;;;;14.44;58.04;93702.81;5089855;28;20205;-76
2021/12/05 13:58:24;;;;;;;12.87;8.33;;;;;;;14.40;58.32;93702.38;5090074;28;20613;-75
2021/12/05 14:00:55;;;;;;;12.30;8.57;;;;;;;14.35;58.24;93703.94;5089816;28;20213;-76
2021/12/05 14:03:57;;;;;;;10.80;8.70;;;;;;;14.28;58.54;93702.09;5087707;28;20769;-75
2021/12/05 14:06:39;;;;;;;10.03;8.00;;;;;;;14.21;58.89;93710.75;5089844;28;20189;-76
2021/12/05 14:09:12;;;;;;;11.73;9.57;;;;;;;14.17;58.84;93707.72;5089401;28;20205;-77
2021/12/05 14:11:46;;;;;;;9.27;7.53;;;;;;;14.13;59.14;93708.28;5090670;28;20761;-75
2021/12/05 14:14:13;;;;;;;11.63;8.97;;;;;;;13.88;59.26;93677.78;5089889;28;20192;-76
2021/12/05 14:16:42;;;;;;;13.37;9.07;;;;;;;14.01;59.46;93706.19;5090027;28;20224;-76
2021/12/05 14:19:12;;;;;;;13.50;9.50;;;;;;;13.96;59.79;93705.94;5092278;28;20197;-76
2021/12/05 14:21:41;;;;;;;14.53;10.10;;;;;;;13.91;59.88;93699.75;5093708;28;20193;-76
2021/12/05 14:24:11;;;;;;;15.33;9.00;;;;;;;13.84;60.09;93704.81;5093180;28;20257;-76
2021/12/05 14:26:40;;;;;;;12.43;9.20;;;;;;;13.77;60.33;93711.66;5093770;28;20201;-76
2021/12/05 14:29:10;;;;;;;10.60;9.23;;;;;;;13.69;60.46;93714.34;5093583;28;20725;-76
2021/12/05 14:31:40;;;;;;;15.60;10.10;;;;;;;13.56;60.87;93704.72;5093930;28;20190;-77
2021/12/05 14:34:10;;;;;;;19.70;10.77;;;;;;;13.48;61.18;93713.31;5093172;28;20189;-76
2021/12/05 14:36:40;;;;;;;11.80;9.17;;;;;;;13.30;61.28;93688.03;5093354;28;20222;-76
2021/12/05 14:39:22;;;;;;;13.37;9.70;;;;;;;13.32;61.61;93699.88;5092989;28;20193;-75
2021/12/05 14:41:52;;;;;;;13.27;10.63;;;;;;;13.22;61.93;93693.25;5093636;28;20205;-75
2021/12/05 14:44:21;;;;;;;15.97;9.30;;;;;;;13.12;62.26;93682.41;5093228;28;20196;-75
2021/12/05 14:46:56;;;;;;;15.03;10.73;;;;;;;13.04;62.39;93703.84;5093048;28;20190;-75
2021/12/05 14:49:26;;;;;;;12.47;9.43;;;;;;;12.98;62.67;93711.44;5092826;28;20189;-74
2021/12/05 14:51:54;;;;;;;14.50;9.77;;;;;;;12.88;63.02;93711.72;5093302;28;20197;-76
2021/12/05 14:54:27;;;;;;;13.13;9.53;;;;;;;12.83;63.02;93716.56;5092760;28;20212;-75
2021/12/05 14:56:55;;;;;;;11.90;9.87;;;;;;;12.77;62.98;93725.75;5092786;28;20257;-76
2021/12/05 14:59:22;;;;;;;14.70;9.83;;;;;;;12.70;63.21;93734.34;5092666;28;20181;-78
2021/12/05 15:01:54;;;;;;;11.67;9.77;;;;;;;12.63;63.40;93731.66;5092902;28;20246;-77
2021/12/05 15:04:25;;;;;;;15.00;10.30;;;;;;;12.50;63.60;93713.50;5093007;28;20545;-76
2021/12/05 15:06:52;;;;;;;13.80;10.97;;;;;;;12.38;63.96;93707.97;5092724;28;20703;-76
2021/12/05 15:09:27;;;;;;;12.90;10.40;;;;;;;12.41;63.97;93717.91;5092491;28;20254;-76
2021/12/05 15:11:57;;;;;;;13.17;10.30;;;;;;;12.16;64.17;93690.88;5092849;28;20182;-75
2021/12/05 15:14:25;;;;;;;15.27;10.13;;;;;;;12.17;64.52;93698.38;5092818;28;20204;-77
2021/12/05 15:16:59;;;;;;;11.43;9.50;;;;;;;12.15;64.82;93702.88;5092311;28;20750;-77
2021/12/05 15:19:26;;;;;;;13.53;9.10;;;;;;;12.11;64.88;93711.09;5092673;28;20629;-76
2021/12/05 15:21:53;;;;;;;11.83;9.43;;;;;;;12.11;65.02;93726.47;5092485;28;20610;-77
2021/12/05 15:24:22;;;;;;;15.60;10.30;;;;;;;11.99;65.24;93711.47;5091870;28;20225;-78
2021/12/05 15:26:51;;;;;;;15.03;11.17;;;;;;;11.65;65.46;93677.72;5092466;28;20284;-76
2021/12/05 15:29:18;;;;;;;12.77;10.23;;;;;;;11.92;65.71;93732.84;5091615;28;20299;-76
2021/12/05 15:31:45;;;;;;;14.97;11.03;;;;;;;11.86;65.85;93729.16;5092614;28;20201;-76
2021/12/05 15:34:32;;;;;;;14.90;10.57;;;;;;;11.77;66.02;93718.16;5092486;28;20190;-76
2021/12/05 15:37:06;;;;;;;13.87;11.13;;;;;;;11.73;66.03;93727.13;5092415;28;20612;-77
2021/12/05 15:39:34;;;;;;;15.70;11.43;;;;;;;11.47;66.26;93706.94;5092017;28;20244;-76
2021/12/05 15:42:02;;;;;;;15.87;11.10;;;;;;;11.60;66.51;93738.88;5092050;28;20185;-78
2021/12/05 15:44:34;;;;;;;15.83;10.63;;;;;;;11.55;66.67;93750.44;5092121;28;20200;-75
2021/12/05 15:47:10;;;;;;;17.10;10.93;;;;;;;11.50;66.64;93749.34;5091790;28;20216;-77
2021/12/05 15:49:50;;;;;;;13.87;11.13;;;;;;;11.44;66.89;93755.09;5092334;28;20209;-78
2021/12/05 15:52:17;;;;;;;13.23;10.27;;;;;;;11.38;67.06;93771.13;5091752;28;20200;-77